createdAt,value
2022-12-25T00:01:36.890Z,100.00
2022-12-25T00:04:07.376Z,96.91
2022-12-25T00:06:37.881Z,96.99
2022-12-25T00:09:11.062Z,94.61
2022-12-25T00:11:41.560Z,95.09
2022-12-25T00:14:11.935Z,97.73
2022-12-25T00:16:42.414Z,97.72
2022-12-25T00:19:12.878Z,96.03
2022-12-25T00:21:43.341Z,97.18
2022-12-25T00:24:16.343Z,100.00
2022-12-25T00:26:46.689Z,100.00
2022-12-25T00:29:16.981Z,100.00
2022-12-25T00:31:47.405Z,100.00
2022-12-25T00:34:17.924Z,100.00
2022-12-25T00:36:48.333Z,100.00
2022-12-25T00:39:21.395Z,100.00
2022-12-25T00:42:04.124Z,100.00
2022-12-25T00:44:34.567Z,100.00
2022-12-25T00:47:06.220Z,100.00
2022-12-25T00:49:36.848Z,100.00
2022-12-25T00:52:07.867Z,100.00
2022-12-25T00:54:41.335Z,100.00
2022-12-25T00:57:11.661Z,100.00
2022-12-25T00:59:42.034Z,100.00
2022-12-25T01:02:33.424Z,100.00
2022-12-25T01:05:04.916Z,100.00
2022-12-25T01:07:35.248Z,100.00
2022-12-25T01:10:22.581Z,100.00
2022-12-25T01:12:54.289Z,100.00
2022-12-25T01:15:24.678Z,100.00
2022-12-25T01:17:55.218Z,100.00
2022-12-25T01:20:25.615Z,100.00
2022-12-25T01:22:56.623Z,100.00
2022-12-25T01:25:29.593Z,100.00
2022-12-25T01:28:00.192Z,100.00
2022-12-25T01:30:31.711Z,100.00
2022-12-25T01:33:02.444Z,100.00
2022-12-25T01:35:32.889Z,100.00
2022-12-25T01:38:03.356Z,97.16
2022-12-25T01:40:37.583Z,97.43
2022-12-25T01:43:13.979Z,100.00
2022-12-25T01:45:49.667Z,100.00
2022-12-25T01:48:23.253Z,100.00
2022-12-25T01:50:58.980Z,100.00
2022-12-25T01:53:30.061Z,100.00
2022-12-25T01:56:06.858Z,100.00
2022-12-25T01:58:37.743Z,100.00
2022-12-25T02:01:09.996Z,100.00
2022-12-25T02:03:42.530Z,100.00
2022-12-25T02:06:13.304Z,100.00
2022-12-25T02:08:44.834Z,100.00
2022-12-25T02:11:37.724Z,100.00
2022-12-25T02:14:08.084Z,100.00
2022-12-25T02:16:57.414Z,100.00
2022-12-25T02:19:55.207Z,100.00
2022-12-25T02:22:37.854Z,100.00
2022-12-25T02:25:32.302Z,100.00
2022-12-25T02:28:17.245Z,100.00
2022-12-25T02:30:54.838Z,100.00
2022-12-25T02:33:46.258Z,100.00
2022-12-25T02:36:24.878Z,100.00
2022-12-25T02:39:23.421Z,99.41
2022-12-25T02:41:57.816Z,99.18
2022-12-25T02:44:45.768Z,98.76
2022-12-25T02:47:28.463Z,98.66
2022-12-25T02:50:13.111Z,98.10
2022-12-25T02:52:57.847Z,97.04
2022-12-25T02:55:48.144Z,98.15
2022-12-25T02:58:36.369Z,98.51
2022-12-25T03:01:41.367Z,100.00
2022-12-25T03:04:30.940Z,100.00
2022-12-25T03:07:12.689Z,100.00
2022-12-25T03:10:02.906Z,100.00
2022-12-25T03:12:49.281Z,100.00
2022-12-25T03:15:33.935Z,100.00
2022-12-25T03:18:11.341Z,100.00
2022-12-25T03:20:54.374Z,99.95
2022-12-25T03:23:43.700Z,100.00
2022-12-25T03:26:26.400Z,100.00
2022-12-25T03:28:56.860Z,100.00
2022-12-25T03:31:34.061Z,100.00
2022-12-25T03:34:45.296Z,100.00
2022-12-25T03:37:45.563Z,100.00
2022-12-25T03:40:39.351Z,100.00
2022-12-25T03:43:30.630Z,100.00
2022-12-25T03:46:19.790Z,100.00
2022-12-25T03:49:08.089Z,100.00
2022-12-25T03:51:56.120Z,100.00
2022-12-25T03:54:43.362Z,100.00
2022-12-25T03:57:26.967Z,100.00
2022-12-25T04:00:09.614Z,100.00
2022-12-25T04:02:53.429Z,100.00
2022-12-25T04:05:36.129Z,100.00
2022-12-25T04:08:21.324Z,100.00
2022-12-25T04:11:04.337Z,100.00
2022-12-25T04:13:46.983Z,100.00
2022-12-25T04:16:29.689Z,100.00
2022-12-25T04:19:12.387Z,100.00
2022-12-25T04:21:55.037Z,99.87
2022-12-25T04:24:40.317Z,100.00
2022-12-25T04:27:23.010Z,100.00
2022-12-25T04:30:05.678Z,100.00
2022-12-25T04:32:48.505Z,100.00
2022-12-25T04:35:31.425Z,99.92
2022-12-25T04:38:01.735Z,99.17
2022-12-25T04:40:34.763Z,97.80
2022-12-25T04:43:05.075Z,97.19
2022-12-25T04:45:35.323Z,97.79
2022-12-25T04:48:05.677Z,98.35
2022-12-25T04:50:36.038Z,98.74
2022-12-25T04:53:06.408Z,100.00
2022-12-25T04:55:39.386Z,100.00
2022-12-25T04:58:10.283Z,100.00
2022-12-25T05:00:40.825Z,100.00
2022-12-25T05:03:11.228Z,100.00
2022-12-25T05:05:43.423Z,100.00
2022-12-25T05:08:13.799Z,99.87
2022-12-25T05:10:46.759Z,98.92
2022-12-25T05:13:17.208Z,98.41
2022-12-25T05:15:47.686Z,98.43
2022-12-25T05:18:18.106Z,100.00
2022-12-25T05:20:56.004Z,100.00
2022-12-25T05:23:26.460Z,100.00
2022-12-25T05:25:59.825Z,100.00
2022-12-25T05:28:30.166Z,99.92
2022-12-25T05:31:00.728Z,100.00
2022-12-25T05:33:31.173Z,100.00
2022-12-25T05:36:01.675Z,100.00
2022-12-25T05:38:32.045Z,100.00
2022-12-25T05:41:05.179Z,100.00
2022-12-25T05:43:35.672Z,100.00
2022-12-25T05:46:09.377Z,100.00
2022-12-25T05:48:41.141Z,100.00
2022-12-25T05:51:14.671Z,100.00
2022-12-25T05:53:46.428Z,100.00
2022-12-25T05:56:19.500Z,100.00
2022-12-25T05:58:49.843Z,100.00
2022-12-25T06:01:23.428Z,100.00
2022-12-25T06:03:54.122Z,100.00
2022-12-25T06:06:24.661Z,100.00
2022-12-25T06:08:57.658Z,100.00
2022-12-25T06:11:30.608Z,100.00
2022-12-25T06:14:01.337Z,100.00
2022-12-25T06:16:37.608Z,100.00
2022-12-25T06:19:08.522Z,100.00
2022-12-25T06:21:38.979Z,100.00
2022-12-25T06:24:13.397Z,100.00
2022-12-25T06:26:49.115Z,100.00
2022-12-25T06:29:19.830Z,100.00
2022-12-25T06:31:50.282Z,100.00
2022-12-25T06:34:20.687Z,100.00
2022-12-25T06:36:51.012Z,100.00
2022-12-25T06:39:21.563Z,100.00
2022-12-25T06:41:54.739Z,100.00
2022-12-25T06:44:25.197Z,100.00
2022-12-25T06:46:56.898Z,100.00
2022-12-25T06:49:27.839Z,100.00
2022-12-25T06:51:58.383Z,100.00
2022-12-25T06:54:28.917Z,100.00
2022-12-25T06:57:01.949Z,100.00
2022-12-25T06:59:32.360Z,100.00
2022-12-25T07:02:03.206Z,100.00
2022-12-25T07:04:39.094Z,100.00
2022-12-25T07:07:11.857Z,100.00
2022-12-25T07:09:42.756Z,100.00
2022-12-25T07:12:23.588Z,100.00
2022-12-25T07:14:58.196Z,100.00
2022-12-25T07:17:28.539Z,100.00
2022-12-25T07:19:58.923Z,100.00
2022-12-25T07:22:31.978Z,100.00
2022-12-25T07:25:02.336Z,100.00
2022-12-25T07:27:35.315Z,100.00
2022-12-25T07:30:05.797Z,100.00
2022-12-25T07:32:36.221Z,100.00
2022-12-25T07:35:07.793Z,100.00
2022-12-25T07:37:38.106Z,100.00
2022-12-25T07:40:10.717Z,100.00
2022-12-25T07:42:43.677Z,100.00
2022-12-25T07:45:14.879Z,100.00
2022-12-25T07:47:44.897Z,100.00
2022-12-25T07:50:15.238Z,100.00
2022-12-25T07:52:47.059Z,100.00
2022-12-25T07:55:17.576Z,100.00
2022-12-25T07:57:50.653Z,99.96
2022-12-25T08:00:22.822Z,100.00
2022-12-25T08:02:53.529Z,100.00
2022-12-25T08:05:24.158Z,100.00
2022-12-25T08:07:58.182Z,100.00
2022-12-25T08:10:28.931Z,100.00
2022-12-25T08:13:02.092Z,100.00
2022-12-25T08:15:34.237Z,100.00
2022-12-25T08:18:04.502Z,100.00
2022-12-25T08:20:34.881Z,100.00
2022-12-25T08:23:05.340Z,99.61
2022-12-25T08:25:36.345Z,99.66
2022-12-25T08:28:09.393Z,99.30
2022-12-25T08:30:41.987Z,98.51
2022-12-25T08:33:12.571Z,97.45
2022-12-25T08:35:42.912Z,96.76
2022-12-25T08:38:13.304Z,95.67
2022-12-25T08:40:43.849Z,94.28
2022-12-25T08:43:16.861Z,93.17
2022-12-25T08:45:50.336Z,92.17
2022-12-25T08:48:20.902Z,90.24
2022-12-25T08:50:52.469Z,88.41
2022-12-25T08:53:24.040Z,87.61
2022-12-25T08:56:01.321Z,86.94
2022-12-25T08:58:34.668Z,85.46
2022-12-25T09:01:05.266Z,84.45
2022-12-25T09:03:36.590Z,82.67
2022-12-25T09:06:10.277Z,80.75
2022-12-25T09:08:48.244Z,81.22
2022-12-25T09:11:21.744Z,81.89
2022-12-25T09:13:54.910Z,82.74
2022-12-25T09:16:26.353Z,83.52
2022-12-25T09:18:59.458Z,83.83
2022-12-25T09:21:31.128Z,83.34
2022-12-25T09:24:01.574Z,79.96
2022-12-25T09:26:31.993Z,74.52
2022-12-25T09:29:07.001Z,70.59
2022-12-25T09:31:37.470Z,67.07
2022-12-25T09:34:07.920Z,66.04
2022-12-25T09:36:38.387Z,65.81
2022-12-25T09:39:08.888Z,63.97
2022-12-25T09:41:50.875Z,62.49
2022-12-25T09:44:28.003Z,61.72
2022-12-25T09:47:02.475Z,60.87
2022-12-25T09:49:41.704Z,61.77
2022-12-25T09:52:17.711Z,62.28
2022-12-25T09:54:57.881Z,63.90
2022-12-25T09:57:29.448Z,65.90
2022-12-25T10:00:02.828Z,66.28
2022-12-25T10:02:52.485Z,66.33
2022-12-25T10:05:52.496Z,65.54
2022-12-25T10:08:37.201Z,65.19
2022-12-25T10:11:22.651Z,64.79
2022-12-25T10:14:09.387Z,64.34
2022-12-25T10:17:00.479Z,61.59
2022-12-25T10:19:38.438Z,58.95
2022-12-25T10:22:19.026Z,58.29
2022-12-25T10:24:53.781Z,58.78
2022-12-25T10:27:33.019Z,58.88
2022-12-25T10:30:05.145Z,59.50
2022-12-25T10:32:38.292Z,62.21
2022-12-25T10:35:13.701Z,60.38
2022-12-25T10:37:45.275Z,58.35
2022-12-25T10:40:39.563Z,59.24
2022-12-25T10:43:18.588Z,59.57
2022-12-25T10:45:50.925Z,59.37
2022-12-25T10:48:29.518Z,58.38
2022-12-25T10:51:00.324Z,59.32
2022-12-25T10:53:31.958Z,60.09
2022-12-25T10:56:05.060Z,60.95
2022-12-25T10:58:37.165Z,62.15
2022-12-25T11:01:10.215Z,61.32
2022-12-25T11:03:48.490Z,60.72
2022-12-25T11:06:28.272Z,59.75
2022-12-25T11:09:01.686Z,59.66
2022-12-25T11:11:33.321Z,59.73
2022-12-25T11:14:07.129Z,60.60
2022-12-25T11:16:40.318Z,62.21
2022-12-25T11:19:29.681Z,62.92
2022-12-25T11:22:02.444Z,63.39
2022-12-25T11:24:35.320Z,62.96
2022-12-25T11:27:09.042Z,62.98
2022-12-25T11:29:46.028Z,64.02
2022-12-25T11:32:24.033Z,65.03
2022-12-25T11:34:57.312Z,63.91
2022-12-25T11:37:42.876Z,64.75
2022-12-25T11:40:18.305Z,66.49
2022-12-25T11:42:55.614Z,67.42
2022-12-25T11:45:34.742Z,67.75
2022-12-25T11:48:14.631Z,68.14
2022-12-25T11:50:53.081Z,68.82
2022-12-25T11:53:31.593Z,69.13
2022-12-25T11:56:06.160Z,69.79
2022-12-25T11:58:41.631Z,70.92
2022-12-25T12:01:22.422Z,70.68
2022-12-25T12:03:53.017Z,69.16
2022-12-25T12:06:36.109Z,67.31
2022-12-25T12:09:25.775Z,66.36
2022-12-25T12:12:04.596Z,65.56
2022-12-25T12:14:50.950Z,65.29
2022-12-25T12:17:22.420Z,64.92
2022-12-25T12:19:52.876Z,65.48
2022-12-25T12:22:30.549Z,64.53
2022-12-25T12:25:07.757Z,62.20
2022-12-25T12:27:41.355Z,61.55
2022-12-25T12:30:28.845Z,59.39
2022-12-25T12:33:02.244Z,55.72
2022-12-25T12:35:36.801Z,55.38
2022-12-25T12:38:17.526Z,51.41
2022-12-25T12:40:56.769Z,51.48
2022-12-25T12:43:35.128Z,53.19
2022-12-25T12:46:11.208Z,55.79
2022-12-25T12:48:48.505Z,58.26
2022-12-25T12:51:32.854Z,59.96
2022-12-25T12:54:23.116Z,59.85
2022-12-25T12:57:02.139Z,59.39
2022-12-25T12:59:43.642Z,60.89
2022-12-25T13:02:48.500Z,63.61
2022-12-25T13:05:33.963Z,65.38
2022-12-25T13:08:17.994Z,67.16
2022-12-25T13:10:53.774Z,69.82
2022-12-25T13:13:29.012Z,70.74
2022-12-25T13:15:59.655Z,72.64
2022-12-25T13:18:30.856Z,73.77
2022-12-25T13:21:05.336Z,74.71
2022-12-25T13:23:39.178Z,74.61
2022-12-25T13:26:18.609Z,75.80
2022-12-25T13:28:50.224Z,76.28
2022-12-25T13:31:25.737Z,76.75
2022-12-25T13:34:02.578Z,77.71
2022-12-25T13:36:40.332Z,78.47
2022-12-25T13:39:12.926Z,78.70
2022-12-25T13:42:02.317Z,78.61
2022-12-25T13:44:44.640Z,79.13
2022-12-25T13:47:26.697Z,79.87
2022-12-25T13:50:01.130Z,79.73
2022-12-25T13:52:37.291Z,79.72
2022-12-25T13:55:16.008Z,80.18
2022-12-25T13:57:54.053Z,80.79
2022-12-25T14:00:28.582Z,80.73
2022-12-25T14:02:59.511Z,80.94
2022-12-25T14:05:37.888Z,81.34
2022-12-25T14:08:18.963Z,81.68
2022-12-25T14:10:53.723Z,81.25
2022-12-25T14:13:30.505Z,81.03
2022-12-25T14:16:01.359Z,80.47
2022-12-25T14:18:33.155Z,81.00
2022-12-25T14:21:06.828Z,81.08
2022-12-25T14:23:44.929Z,81.42
2022-12-25T14:26:19.627Z,81.38
2022-12-25T14:28:55.831Z,81.60
2022-12-25T14:31:27.669Z,81.63
2022-12-25T14:33:58.592Z,81.95
2022-12-25T14:36:29.815Z,82.42
2022-12-25T14:39:02.143Z,82.68
2022-12-25T14:41:38.441Z,83.90
2022-12-25T14:44:36.892Z,85.11
2022-12-25T14:47:17.725Z,86.93
2022-12-25T14:49:49.719Z,87.12
2022-12-25T14:52:25.327Z,88.35
2022-12-25T14:55:00.475Z,89.20
2022-12-25T14:57:35.496Z,90.31
2022-12-25T15:00:24.873Z,91.17
2022-12-25T15:02:58.278Z,92.11
2022-12-25T15:05:35.961Z,91.91
2022-12-25T15:08:24.797Z,92.31
2022-12-25T15:11:00.447Z,92.01
2022-12-25T15:13:34.410Z,92.07
2022-12-25T15:16:15.313Z,91.91
2022-12-25T15:18:48.633Z,91.94
2022-12-25T15:21:24.417Z,91.95
2022-12-25T15:23:56.174Z,91.64
2022-12-25T15:26:27.454Z,91.39
2022-12-25T15:28:57.945Z,90.68
2022-12-25T15:31:33.330Z,90.70
2022-12-25T15:34:07.178Z,90.36
2022-12-25T15:36:37.572Z,89.99
2022-12-25T15:39:08.177Z,90.12
2022-12-25T15:41:53.996Z,90.31
2022-12-25T15:44:25.323Z,90.59
2022-12-25T15:46:58.381Z,90.43
2022-12-25T15:49:28.757Z,90.13
2022-12-25T15:51:59.203Z,90.05
2022-12-25T15:54:29.614Z,90.17
2022-12-25T15:57:04.081Z,89.88
2022-12-25T15:59:34.893Z,89.80
2022-12-25T16:02:19.741Z,90.10
2022-12-25T16:04:51.272Z,89.95
2022-12-25T16:07:25.171Z,90.38
2022-12-25T16:09:55.668Z,91.12
2022-12-25T16:12:26.182Z,93.84
2022-12-25T16:14:56.626Z,94.41
2022-12-25T16:17:29.752Z,95.04
2022-12-25T16:20:00.168Z,95.36
2022-12-25T16:22:31.977Z,95.55
2022-12-25T16:25:02.348Z,95.22
2022-12-25T16:27:32.841Z,95.15
2022-12-25T16:30:04.349Z,95.14
2022-12-25T16:32:37.361Z,94.83
2022-12-25T16:35:09.279Z,94.88
2022-12-25T16:37:40.928Z,94.67
2022-12-25T16:40:13.262Z,94.68
2022-12-25T16:42:43.848Z,94.27
2022-12-25T16:45:15.238Z,94.13
2022-12-25T16:47:48.433Z,94.23
2022-12-25T16:50:19.407Z,93.75
2022-12-25T16:52:49.456Z,93.81
2022-12-25T16:55:25.017Z,93.55
2022-12-25T16:57:58.251Z,93.13
2022-12-25T17:00:29.196Z,92.98
2022-12-25T17:03:03.247Z,93.44
2022-12-25T17:05:35.956Z,93.30
2022-12-25T17:08:06.525Z,93.28
2022-12-25T17:10:37.165Z,93.18
2022-12-25T17:13:07.628Z,93.33
2022-12-25T17:15:38.100Z,93.27
2022-12-25T17:18:11.274Z,93.13
2022-12-25T17:20:41.736Z,93.15
2022-12-25T17:23:12.115Z,93.13
2022-12-25T17:25:42.528Z,92.79
2022-12-25T17:28:12.993Z,92.75
2022-12-25T17:30:43.462Z,92.28
2022-12-25T17:33:16.531Z,92.37
2022-12-25T17:35:47.024Z,92.06
2022-12-25T17:38:17.391Z,92.14
2022-12-25T17:40:47.839Z,91.99
2022-12-25T17:43:20.994Z,91.68
2022-12-25T17:45:51.795Z,91.46
2022-12-25T17:48:24.990Z,91.08
2022-12-25T17:50:55.365Z,90.63
2022-12-25T17:53:25.808Z,90.52
2022-12-25T17:56:00.265Z,89.82
2022-12-25T17:58:32.388Z,89.46
2022-12-25T18:01:09.222Z,89.21
2022-12-25T18:03:42.663Z,88.72
2022-12-25T18:06:19.137Z,88.54
2022-12-25T18:08:50.306Z,88.45
2022-12-25T18:11:24.655Z,88.33
2022-12-25T18:13:55.385Z,88.46
2022-12-25T18:16:28.448Z,88.17
2022-12-25T18:19:02.105Z,87.79
2022-12-25T18:21:33.304Z,87.79
2022-12-25T18:24:05.283Z,87.83
2022-12-25T18:26:36.004Z,87.81
2022-12-25T18:29:07.073Z,87.64
2022-12-25T18:31:37.434Z,87.57
2022-12-25T18:34:10.476Z,87.12
2022-12-25T18:36:40.896Z,86.95
2022-12-25T18:39:11.331Z,86.84
2022-12-25T18:42:02.964Z,86.62
2022-12-25T18:44:33.824Z,86.09
2022-12-25T18:47:04.358Z,86.14
2022-12-25T18:49:38.486Z,85.81
2022-12-25T18:52:47.756Z,85.74
2022-12-25T18:54:59.499Z,85.40
2022-12-25T18:57:32.163Z,85.43
2022-12-25T19:00:03.183Z,85.39
2022-12-25T19:02:33.337Z,85.17
2022-12-25T19:05:06.973Z,85.09
2022-12-25T19:07:37.431Z,84.76
2022-12-25T19:10:10.337Z,84.43
2022-12-25T19:12:40.816Z,84.31
2022-12-25T19:15:13.672Z,84.45
2022-12-25T19:17:44.203Z,84.36
2022-12-25T19:20:17.605Z,84.65
2022-12-25T19:22:48.053Z,84.22
2022-12-25T19:25:18.849Z,84.66
2022-12-25T19:27:49.225Z,84.29
2022-12-25T19:30:19.741Z,84.15
2022-12-25T19:32:50.255Z,84.03
2022-12-25T19:35:23.290Z,83.59
2022-12-25T19:37:53.684Z,83.04
2022-12-25T19:40:24.077Z,82.97
2022-12-25T19:42:54.452Z,82.85
2022-12-25T19:45:24.861Z,82.42
2022-12-25T19:47:56.133Z,82.24
2022-12-25T19:50:30.844Z,82.14
2022-12-25T19:53:01.862Z,81.90
2022-12-25T19:55:35.555Z,81.28
2022-12-25T19:58:06.053Z,81.11
2022-12-25T20:00:36.395Z,81.38
2022-12-25T20:03:07.303Z,80.98
2022-12-25T20:05:40.263Z,80.89
2022-12-25T20:08:10.665Z,80.80
2022-12-25T20:10:47.403Z,80.60
2022-12-25T20:13:18.227Z,80.38
2022-12-25T20:15:49.513Z,80.15
2022-12-25T20:18:20.404Z,79.80
2022-12-25T20:21:01.485Z,79.48
2022-12-25T20:23:31.664Z,79.51
2022-12-25T20:26:04.907Z,79.38
2022-12-25T20:28:37.938Z,79.21
2022-12-25T20:31:09.863Z,79.34
2022-12-25T20:33:40.461Z,78.83
2022-12-25T20:36:14.335Z,78.37
2022-12-25T20:38:45.039Z,78.35
2022-12-25T20:41:27.349Z,78.25
2022-12-25T20:43:58.901Z,78.19
2022-12-25T20:46:30.928Z,78.10
2022-12-25T20:49:01.160Z,77.61
2022-12-25T20:51:34.278Z,77.59
2022-12-25T20:54:10.358Z,77.58
2022-12-25T20:56:40.794Z,76.83
2022-12-25T20:59:13.116Z,76.99
2022-12-25T21:01:45.687Z,76.51
2022-12-25T21:04:17.013Z,75.85
2022-12-25T21:06:50.071Z,75.88
2022-12-25T21:09:20.585Z,75.49
2022-12-25T21:11:50.950Z,75.19
2022-12-25T21:14:21.355Z,74.94
2022-12-25T21:16:51.912Z,74.64
2022-12-25T21:19:22.417Z,74.30
2022-12-25T21:21:55.658Z,73.54
2022-12-25T21:24:26.019Z,73.74
2022-12-25T21:26:56.365Z,73.80
2022-12-25T21:29:26.760Z,73.93
2022-12-25T21:32:09.763Z,73.83
2022-12-25T21:34:40.478Z,74.55
2022-12-25T21:37:14.833Z,74.54
2022-12-25T21:39:45.246Z,74.71
2022-12-25T21:42:15.707Z,74.98
2022-12-25T21:44:46.236Z,74.84
2022-12-25T21:47:16.647Z,75.16
2022-12-25T21:49:59.401Z,75.08
2022-12-25T21:52:32.863Z,75.43
2022-12-25T21:55:03.217Z,75.30
2022-12-25T21:57:33.614Z,75.11
2022-12-25T22:00:05.148Z,75.45
2022-12-25T22:02:36.574Z,75.45
2022-12-25T22:05:08.222Z,75.10
2022-12-25T22:07:38.692Z,75.43
2022-12-25T22:10:11.384Z,75.99
2022-12-25T22:12:54.181Z,75.93
2022-12-25T22:15:24.567Z,75.90
2022-12-25T22:18:07.276Z,75.85
2022-12-25T22:20:41.852Z,76.05
2022-12-25T22:23:16.403Z,76.38
2022-12-25T22:25:46.855Z,76.46
2022-12-25T22:28:17.630Z,76.89
2022-12-25T22:30:47.991Z,77.14
2022-12-25T22:33:20.524Z,77.17
2022-12-25T22:35:50.932Z,77.32
2022-12-25T22:38:24.031Z,77.21
2022-12-25T22:40:54.384Z,77.28
2022-12-25T22:43:43.288Z,77.33
2022-12-25T22:46:15.111Z,77.44
2022-12-25T22:48:45.470Z,77.36
2022-12-25T22:51:15.982Z,77.64
2022-12-25T22:53:50.097Z,77.93
2022-12-25T22:56:20.719Z,78.39
2022-12-25T22:58:51.187Z,78.53
2022-12-25T23:01:21.727Z,78.75
2022-12-25T23:03:56.545Z,79.06
2022-12-25T23:06:26.984Z,79.58
2022-12-25T23:09:00.129Z,79.63
2022-12-25T23:11:30.710Z,79.96
2022-12-25T23:14:22.571Z,79.97
2022-12-25T23:16:56.406Z,80.12
2022-12-25T23:19:39.380Z,80.13
2022-12-25T23:22:24.055Z,80.54
2022-12-25T23:25:09.557Z,80.42
2022-12-25T23:27:40.050Z,80.71
2022-12-25T23:30:09.401Z,80.89
2022-12-25T23:32:40.556Z,81.27
2022-12-25T23:35:12.049Z,81.67
2022-12-25T23:37:42.466Z,82.07
2022-12-25T23:40:16.155Z,82.06
2022-12-25T23:42:46.544Z,81.95
2022-12-25T23:45:17.256Z,82.30
2022-12-25T23:47:47.718Z,81.91
2022-12-25T23:50:18.280Z,82.09
2022-12-25T23:52:48.678Z,82.07
2022-12-25T23:55:21.715Z,82.27
2022-12-25T23:57:52.173Z,82.32
